Data for 03/05/2016

Time Sea-Level Adjusted Pressure Absolute Pressure Temperature Relative Humidity Dew Point   
(mb) (inHg) (mb) (inHg) (C) (F) (%) (C) (F)
00:05 1016 30 845 24.95 4.8 40.6 33 -10.1 13.9
00:10 1016 30 845 24.95 4.8 40.6 34 -9.9 14.2
00:15 1016 30 845 24.95 4.6 40.2 34 -9.9 14.2
00:20 1016 30 845 24.95 4.7 40.4 35 -9.6 14.7
00:25 1016 30 845 24.95 4.6 40.3 35 -9.7 14.6
00:30 1016 30 845 24.95 4.7 40.4 35 -9.6 14.8
00:35 1016 30 845 24.95 4.7 40.4 36 -9.3 15.3
00:40 1016 30 845 24.95 4.4 39.9 36 -9.3 15.2
00:45 1016 30 845 24.95 4.3 39.7 37 -9.1 15.6
00:50 1016 30 845 24.95 3.9 39 39 -8.8 16.1
00:55 1016 30 845 24.95 3.9 39 38 -9.3 15.3
01:00 1016 30 845 24.95 4.3 39.8 36 -9.4 15.1
01:05 1016 30 845 24.95 4.4 39.9 37 -9.1 15.7
01:10 1016 30 845 24.95 4.3 39.8 36 -9.4 15.2
01:15 1016 30 845 24.95 4.5 40.1 36 -9.2 15.4
01:20 1015 29.97 845 24.95 4.5 40.1 37 -9.1 15.6
01:25 1015 29.97 845 24.95 4.7 40.4 36 -9.1 15.6
01:30 1015 29.97 845 24.95 5 41 35 -9.2 15.4
01:35 1015 29.97 844 24.92 5.2 41.3 35 -9.2 15.5
01:40 1015 29.97 844 24.92 5.3 41.5 35 -9 15.9
01:45 1015 29.97 844 24.92 5.5 42 35 -8.8 16.1
01:50 1015 29.97 844 24.92 5.5 41.9 36 -8.6 16.6
01:55 1015 29.97 844 24.92 5.1 41.2 38 -8.1 17.4
02:00 1015 29.97 844 24.92 4.9 40.8 39 -8.1 17.4
02:05 1015 29.97 844 24.92 4.9 40.9 39 -7.8 17.9
02:10 1015 29.97 844 24.92 5 41 39 -7.7 18.1
02:15 1015 29.97 844 24.92 5 40.9 41 -7.3 18.9
02:20 1015 29.97 844 24.92 4.7 40.5 43 -6.8 19.8
02:25 1015 29.97 844 24.92 4.5 40.1 44 -6.7 19.9
02:30 1015 29.97 844 24.92 4.3 39.7 45 -6.6 20.2
02:35 1015 29.97 844 24.92 4.4 39.9 44 -6.7 19.9
02:40 1015 29.97 844 24.92 4.6 40.3 42 -7.3 18.9
02:45 1015 29.97 844 24.92 5 41 41 -7.2 19
02:50 1015 29.97 844 24.92 4.9 40.9 41 -7.2 19
02:55 1015 29.97 844 24.92 5.4 41.7 39 -7.4 18.7
03:00 1015 29.97 844 24.92 5.7 42.2 38 -7.5 18.6
03:05 1015 29.97 844 24.92 5.9 42.7 38 -7.2 19.1
03:10 1014 29.94 844 24.92 5.8 42.5 39 -7.1 19.2
03:15 1014 29.94 844 24.92 5.8 42.5 39 -7 19.4
03:20 1014 29.94 843 24.89 5.7 42.3 40 -6.7 19.9
03:25 1014 29.94 843 24.89 5.6 42 40 -6.8 19.7
03:30 1014 29.94 843 24.89 5.5 41.9 41 -6.6 20.1
03:35 1014 29.94 843 24.89 5.2 41.4 43 -6.3 20.6
03:40 1014 29.94 843 24.89 5 40.9 44 -6.2 20.8
03:45 1014 29.94 843 24.89 4.7 40.4 45 -6.3 20.6
03:50 1014 29.94 843 24.89 4.7 40.5 44 -6.6 20
03:55 1014 29.94 843 24.89 5 40.9 43 -6.6 20.2
04:00 1014 29.94 843 24.89 4.9 40.8 43 -6.6 20.1
04:05 1014 29.94 843 24.89 5 41 43 -6.7 20
04:10 1014 29.94 843 24.89 5.3 41.5 42 -6.5 20.2
04:15 1014 29.94 843 24.89 5.5 41.9 42 -6.3 20.6
04:20 1013 29.91 843 24.89 5.4 41.7 43 -6.2 20.8
04:25 1013 29.91 843 24.89 5.1 41.2 44 -6.2 20.8
04:30 1013 29.91 843 24.89 4.9 40.8 44 -6.2 20.8
04:35 1013 29.91 843 24.89 4.7 40.5 45 -6.3 20.7
04:40 1013 29.91 843 24.89 4.7 40.4 45 -6.3 20.7
04:45 1013 29.91 842 24.86 5 40.9 45 -6 21.2
04:50 1013 29.91 842 24.86 5.1 41.2 44 -6.3 20.7
04:55 1013 29.91 842 24.86 5.2 41.4 44 -6.2 20.9
05:00 1013 29.91 842 24.86 5.4 41.7 43 -6.1 21
05:05 1013 29.91 842 24.86 5.5 41.8 43 -6.1 21
05:10 1013 29.91 842 24.86 5.5 41.9 43 -6.1 21
05:15 1013 29.91 842 24.86 5.5 42 43 -6 21.2
05:20 1013 29.91 842 24.86 5.5 41.9 44 -5.8 21.5
05:25 1013 29.91 842 24.86 5.3 41.5 45 -5.7 21.7
05:30 1013 29.91 842 24.86 5.3 41.5 44 -5.9 21.4
05:35 1013 29.91 842 24.86 5.4 41.8 44 -5.8 21.5
05:40 1012 29.88 842 24.86 5.7 42.2 43 -5.9 21.3
05:45 1012 29.88 842 24.86 6 42.7 42 -5.9 21.5
05:50 1012 29.88 842 24.86 6 42.8 43 -5.8 21.6
05:55 1012 29.88 842 24.86 6 42.8 43 -5.8 21.6
06:00 1012 29.88 841 24.83 6.1 43 42 -5.8 21.6
06:05 1012 29.88 841 24.83 6.2 43.2 42 -5.8 21.5
06:10 1012 29.88 841 24.83 6.3 43.3 42 -5.7 21.7
06:15 1012 29.88 841 24.83 6.3 43.4 42 -5.7 21.7
06:20 1012 29.88 841 24.83 6.3 43.3 42 -5.6 21.9
06:25 1012 29.88 841 24.83 6.2 43.1 42 -5.7 21.7
06:30 1012 29.88 841 24.83 6.1 43 43 -5.4 22.2
06:35 1012 29.88 841 24.83 5.9 42.6 44 -5.5 22.2
06:40 1012 29.88 841 24.83 6.1 42.9 43 -5.7 21.7
06:45 1012 29.88 841 24.83 6.4 43.6 42 -5.7 21.8
06:50 1012 29.88 841 24.83 6.8 44.2 40 -6 21.2
06:55 1012 29.88 841 24.83 7.1 44.8 40 -5.6 21.9
07:00 1012 29.88 841 24.83 6.8 44.2 40 -5.7 21.7
07:05 1012 29.88 841 24.83 6.8 44.3 40 -5.7 21.8
07:10 1012 29.88 841 24.83 7 44.5 40 -5.6 22
07:15 1012 29.88 841 24.83 6.8 44.3 41 -5.6 22
07:20 1012 29.88 841 24.83 6.9 44.4 41 -5.6 22
07:25 1012 29.88 841 24.83 6.8 44.2 41 -5.7 21.8
07:30 1012 29.88 841 24.83 6.6 43.8 43 -5.2 22.6
07:35 1012 29.88 841 24.83 6.2 43.1 43 -5.4 22.3
07:40 1012 29.88 841 24.83 6.1 42.9 43 -5.6 22
07:45 1012 29.88 841 24.83 6.3 43.4 42 -5.6 22
07:50 1012 29.88 841 24.83 6.6 43.9 41 -5.6 21.9
07:55 1012 29.88 841 24.83 6.8 44.3 41 -5.4 22.2
08:00 1012 29.88 841 24.83 6.6 43.9 44 -4.9 23.2
08:05 1012 29.88 841 24.83 6.2 43.1 42 -5.7 21.8
08:10 1012 29.88 841 24.83 6.5 43.7 42 -5.6 21.9
08:15 1012 29.88 841 24.83 6.7 44 42 -5.3 22.4
08:20 1011 29.85 841 24.83 6.5 43.7 42 -5.5 22.1
08:25 1011 29.85 841 24.83 6.8 44.3 41 -5.5 22.1
08:30 1011 29.85 841 24.83 6.9 44.5 41 -5.4 22.2
08:35 1011 29.85 841 24.83 7 44.7 40 -5.5 22.1
08:40 1011 29.85 841 24.83 7.3 45.2 40 -5.5 22.1
08:45 1011 29.85 840 24.81 7.7 45.8 39 -5.5 22
08:50 1011 29.85 840 24.81 7.8 46.1 38 -5.5 22
08:55 1011 29.85 840 24.81 7.9 46.3 38 -5.5 22
09:00 1011 29.85 840 24.81 8 46.4 38 -5.5 22
09:05 1011 29.85 840 24.81 8.3 47 36 -5.8 21.6
09:10 1011 29.85 840 24.81 8.8 47.9 35 -5.7 21.7
09:15 1011 29.85 840 24.81 9.2 48.5 34 -5.9 21.3
09:20 1011 29.85 840 24.81 9.3 48.7 34 -5.8 21.5
09:25 1011 29.85 840 24.81 9.1 48.4 35 -5.7 21.7
09:30 1011 29.85 840 24.81 9 48.2 34 -5.9 21.3
09:35 1011 29.85 840 24.81 9.1 48.3 34 -5.9 21.4
09:40 1011 29.85 840 24.81 9.1 48.4 34 -6 21.2
09:45 1011 29.85 840 24.81 9.3 48.8 34 -5.8 21.6
09:50 1011 29.85 840 24.81 9.3 48.7 34 -5.9 21.4
09:55 1011 29.85 840 24.81 9.5 49.1 33 -6 21.2
10:00 1011 29.85 840 24.81 9.7 49.5 33 -5.8 21.6
10:05 1011 29.85 840 24.81 10 50 32 -6.1 21.1
10:10 1011 29.85 840 24.81 10.2 50.3 32 -5.8 21.5
10:15 1011 29.85 840 24.81 10.3 50.5 32 -5.9 21.5
10:20 1011 29.85 840 24.81 10.5 50.8 32 -5.6 21.8
10:25 1011 29.85 840 24.81 10.7 51.2 31 -5.7 21.7
10:30 1011 29.85 840 24.81 11 51.9 31 -5.6 21.9
10:35 1011 29.85 840 24.81 11.2 52.1 30 -5.5 22
10:40 1011 29.85 840 24.81 11.4 52.4 30 -5.5 22.2
10:45 1011 29.85 840 24.81 11.5 52.7 30 -5.3 22.5
10:50 1011 29.85 840 24.81 11.6 52.8 30 -5.3 22.4
10:55 1011 29.85 840 24.81 11.7 53.1 30 -5.3 22.5
11:00 1011 29.85 840 24.81 11.8 53.3 29 -5.4 22.2
11:05 1011 29.85 840 24.81 11.9 53.4 30 -5.2 22.7
11:10 1011 29.85 840 24.81 12.6 54.7 27 -6 21.3
11:15 1010 29.83 840 24.81 13.1 55.6 28 -4.8 23.3
11:20 1010 29.83 840 24.81 12.7 54.9 28 -5.2 22.6
11:25 1010 29.83 840 24.81 12.7 54.9 29 -4.9 23.2
11:30 1010 29.83 840 24.81 12.8 55.1 29 -4.8 23.3
11:35 1010 29.83 840 24.81 13 55.4 29 -4.6 23.7
11:40 1010 29.83 840 24.81 13.3 56 27 -5.1 22.8
11:45 1010 29.83 840 24.81 14.2 57.6 30 -3 26.6
11:50 1010 29.83 840 24.81 14.1 57.4 32 -2.1 28.3
11:55 1010 29.83 840 24.81 13.1 55.5 37 -1.3 29.7
12:00 1010 29.83 840 24.81 12 53.5 36 -2.7 27.1
12:05 1010 29.83 840 24.81 11.7 53 36 -3 26.6
12:10 1010 29.83 840 24.81 11.7 53 35 -3.2 26.2
12:15 1010 29.83 839 24.78 11.9 53.5 34 -3.5 25.7
12:20 1010 29.83 839 24.78 12 53.6 32 -4.2 24.4
12:25 1010 29.83 839 24.78 12.2 54 30 -4.7 23.6
12:30 1010 29.83 839 24.78 12.8 55 30 -4.3 24.3
12:35 1010 29.83 839 24.78 13.1 55.5 29 -4.5 23.9
12:40 1010 29.83 839 24.78 13.5 56.4 28 -4.5 23.9
12:45 1010 29.83 839 24.78 13.7 56.6 27 -4.8 23.3
12:50 1010 29.83 839 24.78 13.6 56.5 28 -4.7 23.6
12:55 1010 29.83 839 24.78 14.5 58.2 26 -4.8 23.4
13:00 1010 29.83 839 24.78 15.4 59.6 24 -5.1 22.8
13:05 1010 29.83 839 24.78 16 60.9 22 -5.5 22.1
13:10 1010 29.83 839 24.78 16.8 62.2 21 -5.8 21.6
13:15 1010 29.83 839 24.78 17 62.6 21 -5.2 22.7
13:20 1010 29.83 839 24.78 16.3 61.4 23 -5 22.9
13:25 1010 29.83 839 24.78 16.2 61.2 23 -4.6 23.8
13:30 1010 29.83 839 24.78 16.1 60.9 23 -4.8 23.3
13:35 1010 29.83 839 24.78 16 60.8 23 -5 23
13:40 1009 29.8 839 24.78 16.6 61.9 22 -5.2 22.6
13:45 1009 29.8 839 24.78 17 62.5 23 -4.3 24.3
13:50 1009 29.8 838 24.75 16.5 61.7 24 -4.1 24.6
13:55 1009 29.8 838 24.75 15.8 60.5 26 -3.8 25.2
14:00 1009 29.8 838 24.75 15.7 60.2 25 -4.4 24.1
14:05 1009 29.8 838 24.75 16 60.7 24 -4.3 24.2
14:10 1009 29.8 838 24.75 16.1 60.9 25 -4 24.8
14:15 1009 29.8 838 24.75 16.1 60.9 23 -4.9 23.1
14:20 1009 29.8 838 24.75 16.1 60.9 26 -3.6 25.6
14:25 1009 29.8 838 24.75 15.5 59.9 26 -3.8 25.2
14:30 1009 29.8 838 24.75 15.5 60 26 -3.9 25.1
14:35 1009 29.8 838 24.75 15.3 59.5 26 -3.8 25.1
14:40 1009 29.8 838 24.75 15.4 59.7 26 -3.8 25.2
14:45 1009 29.8 838 24.75 15.2 59.4 26 -4 24.8
14:50 1009 29.8 838 24.75 15.3 59.5 26 -3.9 24.9
14:55 1009 29.8 838 24.75 15.6 60 24 -4.9 23.2
15:00 1009 29.8 838 24.75 15.7 60.2 24 -4.8 23.3
15:05 1009 29.8 838 24.75 15.9 60.7 23 -5.3 22.5
15:10 1009 29.8 838 24.75 16.4 61.4 22 -5.4 22.2
15:15 1009 29.8 838 24.75 16.8 62.2 22 -5.2 22.7
15:20 1009 29.8 838 24.75 16.7 62 22 -5 23
15:25 1009 29.8 838 24.75 16.8 62.2 22 -5 23.1
15:30 1009 29.8 838 24.75 16.8 62.2 21 -5.3 22.5
15:35 1009 29.8 838 24.75 16.7 62 22 -4.8 23.4
15:40 1009 29.8 838 24.75 16.7 62 22 -4.9 23.2
15:45 1009 29.8 838 24.75 16.6 61.9 23 -4.7 23.5
15:50 1009 29.8 838 24.75 16.4 61.5 23 -4.5 23.9
15:55 1009 29.8 838 24.75 16.2 61.2 24 -4.4 24.1
16:00 1009 29.8 838 24.75 16.1 61 24 -4.6 23.7
16:05 1009 29.8 838 24.75 16 60.8 24 -4.2 24.4
16:10 1009 29.8 838 24.75 15.7 60.2 25 -4.2 24.5
16:15 1009 29.8 838 24.75 15.5 59.9 26 -4 24.8
16:20 1009 29.8 838 24.75 15.4 59.7 26 -4 24.8
16:25 1009 29.8 838 24.75 15.2 59.4 26 -4.2 24.4
16:30 1009 29.8 838 24.75 15 59.1 27 -3.7 25.4
16:35 1009 29.8 838 24.75 14.8 58.7 27 -3.8 25.2
16:40 1009 29.8 838 24.75 14.7 58.5 27 -3.9 25
16:45 1009 29.8 838 24.75 14.7 58.5 28 -3.5 25.7
16:50 1009 29.8 838 24.75 14.8 58.6 28 -3.4 26
16:55 1009 29.8 838 24.75 14.7 58.5 29 -3.3 26.1
17:00 1009 29.8 838 24.75 14.9 58.7 28 -3.3 26.1
17:05 1009 29.8 839 24.78 15.1 59.2 28 -3.4 25.9
17:10 1009 29.8 839 24.78 15.3 59.5 28 -3 26.6
17:15 1009 29.8 839 24.78 15.2 59.3 28 -3.1 26.5
17:20 1009 29.8 839 24.78 15.1 59.2 28 -3 26.6
17:25 1009 29.8 838 24.75 14.7 58.5 29 -3 26.6
17:30 1009 29.8 838 24.75 14.4 57.9 29 -3.1 26.3
17:35 1009 29.8 838 24.75 14.1 57.5 30 -2.9 26.7
17:40 1009 29.8 839 24.78 13.9 57 31 -3 26.6
17:45 1009 29.8 839 24.78 13.8 56.8 31 -2.9 26.7
17:50 1009 29.8 839 24.78 14 57.2 30 -3.1 26.3
17:55 1009 29.8 839 24.78 14.3 57.7 30 -3 26.7
18:00 1009 29.8 838 24.75 14.2 57.5 30 -3 26.6
18:05 1009 29.8 838 24.75 14 57.2 31 -2.9 26.8
18:10 1009 29.8 838 24.75 13.9 57.1 31 -3 26.6
18:15 1009 29.8 838 24.75 13.9 57.1 31 -3 26.7
18:20 1009 29.8 838 24.75 13.9 57 31 -3.1 26.5
18:25 1009 29.8 839 24.78 13.8 56.8 31 -3.1 26.5
18:30 1009 29.8 839 24.78 13.7 56.6 31 -3 26.6
18:35 1009 29.8 839 24.78 13.5 56.4 31 -3.1 26.4
18:40 1009 29.8 839 24.78 13.4 56.2 32 -2.7 27.1
18:45 1009 29.8 839 24.78 13.2 55.8 32 -2.8 26.9
18:50 1009 29.8 839 24.78 13.2 55.8 32 -3 26.5
18:55 1009 29.8 839 24.78 13 55.5 33 -2.9 26.7
19:00 1009 29.8 839 24.78 12.8 55.1 33 -2.8 26.9
19:05 1010 29.83 839 24.78 12.5 54.5 34 -2.9 26.8
19:10 1010 29.83 839 24.78 12.2 54 35 -2.6 27.3
19:15 1010 29.83 839 24.78 12.1 53.8 36 -2.6 27.3
19:20 1010 29.83 839 24.78 12 53.6 36 -2.6 27.4
19:25 1010 29.83 839 24.78 11.7 53.1 37 -2.5 27.6
19:30 1010 29.83 839 24.78 11.5 52.7 37 -2.5 27.5
19:35 1010 29.83 839 24.78 11.3 52.4 37 -2.7 27.1
19:40 1010 29.83 839 24.78 11.2 52.1 39 -2.4 27.7
19:45 1010 29.83 839 24.78 11 51.8 38 -2.7 27.1
19:50 1010 29.83 839 24.78 11 51.8 39 -2.3 27.9
19:55 1010 29.83 839 24.78 10.6 51.1 40 -2.4 27.6
20:00 1010 29.83 839 24.78 10.3 50.5 42 -2.2 28.1
20:05 1010 29.83 839 24.78 10.1 50.1 41 -2.6 27.4
20:10 1010 29.83 839 24.78 10.3 50.5 41 -2.4 27.7
20:15 1010 29.83 839 24.78 10.1 50.2 42 -2.2 28.1
20:20 1010 29.83 839 24.78 9.6 49.3 43 -2.2 28.1
20:25 1010 29.83 839 24.78 9.2 48.5 44 -2.3 27.9
20:30 1010 29.83 839 24.78 9.1 48.4 44 -2.6 27.4
20:35 1010 29.83 839 24.78 9.5 49 43 -2.6 27.3
20:40 1010 29.83 839 24.78 9.7 49.4 42 -2.5 27.4
20:45 1010 29.83 839 24.78 9.7 49.5 42 -2.4 27.6
20:50 1010 29.83 839 24.78 9.6 49.2 43 -2.5 27.6
20:55 1010 29.83 839 24.78 9.5 49.1 42 -2.8 27
21:00 1010 29.83 839 24.78 9.8 49.6 41 -2.8 27
21:05 1010 29.83 839 24.78 9.8 49.7 41 -2.7 27.1
21:10 1010 29.83 839 24.78 9.9 49.8 41 -2.7 27.2
21:15 1010 29.83 839 24.78 9.6 49.3 42 -2.6 27.3
21:20 1010 29.83 839 24.78 9.2 48.6 43 -2.5 27.4
21:25 1010 29.83 839 24.78 8.9 48.1 44 -2.6 27.2
21:30 1010 29.83 839 24.78 9 48.2 44 -2.6 27.3
21:35 1010 29.83 839 24.78 8.7 47.7 45 -2.5 27.5
21:40 1010 29.83 839 24.78 8.3 46.9 47 -2.5 27.6
21:45 1010 29.83 839 24.78 8.2 46.7 46 -2.7 27.2
21:50 1010 29.83 839 24.78 8.3 47 46 -2.7 27.1
21:55 1010 29.83 839 24.78 8.8 47.8 44 -2.9 26.9
22:00 1010 29.83 839 24.78 9.1 48.5 42 -3 26.5
22:05 1010 29.83 839 24.78 9.2 48.6 42 -2.9 26.8
22:10 1010 29.83 839 24.78 9.2 48.5 43 -2.8 26.9
22:15 1010 29.83 839 24.78 8.8 47.8 44 -2.7 27.2
22:20 1010 29.83 839 24.78 8.6 47.4 45 -2.6 27.3
22:25 1010 29.83 839 24.78 8.2 46.8 46 -2.7 27.2
22:30 1010 29.83 839 24.78 8.3 46.9 44 -3.1 26.4
22:35 1010 29.83 839 24.78 8.8 47.8 42 -3.3 26
22:40 1010 29.83 839 24.78 9.6 49.4 39 -3.5 25.8
22:45 1010 29.83 839 24.78 9.8 49.6 41 -2.7 27.1
22:50 1010 29.83 839 24.78 9.2 48.6 42 -3 26.6
22:55 1010 29.83 839 24.78 9 48.2 43 -2.9 26.8
23:00 1010 29.83 839 24.78 9 48.2 43 -2.9 26.8
23:05 1010 29.83 839 24.78 8.9 48 42 -3.3 26.1
23:10 1010 29.83 839 24.78 8.9 48 43 -2.8 26.9
23:15 1010 29.83 839 24.78 8.5 47.3 44 -3 26.6
23:20 1010 29.83 839 24.78 8.4 47.1 45 -2.9 26.8
23:25 1010 29.83 839 24.78 8.1 46.6 46 -2.7 27.2
23:30 1010 29.83 839 24.78 7.8 46 45 -3.3 26
23:35 1009 29.8 839 24.78 8.6 47.5 42 -3.5 25.8
23:40 1009 29.8 839 24.78 9.2 48.5 41 -3.5 25.7
23:45 1009 29.8 838 24.75 9.3 48.7 42 -2.8 27
23:50 1009 29.8 838 24.75 8.6 47.5 43 -3.3 26.1
23:55 1009 29.8 838 24.75 8.5 47.4 44 -2.9 26.7
24:00 1009 29.8 838 24.75 7.6 45.7 49 -2.5 27.6